createdAt,value
2017-09-06T00:00:46.245Z,100871.19
2017-09-06T00:05:48.167Z,100868.88
2017-09-06T00:10:52.188Z,100866.03
2017-09-06T00:15:54.177Z,100861.92
2017-09-06T00:20:57.819Z,100843.51
2017-09-06T00:25:59.814Z,100860.22
2017-09-06T00:31:01.966Z,100856.09
2017-09-06T00:36:04.188Z,100847.37
2017-09-06T00:41:06.975Z,100858.21
2017-09-06T00:46:09.874Z,100852.56
2017-09-06T00:51:11.835Z,100847.00
2017-09-06T00:56:14.208Z,100846.55
2017-09-06T01:01:17.433Z,100845.34
2017-09-06T01:06:19.730Z,100845.77
2017-09-06T01:11:22.067Z,100847.08
2017-09-06T01:16:24.089Z,100834.97
2017-09-06T01:21:26.079Z,100850.17
2017-09-06T01:26:28.056Z,100837.73
2017-09-06T01:31:30.094Z,100841.03
2017-09-06T01:36:32.082Z,100848.88
2017-09-06T01:41:34.095Z,100849.70
2017-09-06T01:46:36.117Z,100844.47
2017-09-06T01:51:38.104Z,100846.09
2017-09-06T01:56:40.103Z,100845.59
2017-09-06T02:01:42.086Z,100835.30
2017-09-06T02:06:44.092Z,100835.34
2017-09-06T02:11:46.045Z,100832.76
2017-09-06T02:16:47.999Z,100833.62
2017-09-06T02:21:49.948Z,100824.31
2017-09-06T02:26:51.911Z,100831.00
2017-09-06T02:31:53.902Z,100812.61
2017-09-06T02:36:55.886Z,100821.22
2017-09-06T02:41:57.945Z,100811.44
2017-09-06T02:46:59.994Z,100805.33
2017-09-06T02:52:02.220Z,100805.69
2017-09-06T02:57:04.211Z,100800.52
2017-09-06T03:02:06.195Z,100806.81
2017-09-06T03:07:13.704Z,100804.98
2017-09-06T03:12:17.519Z,100801.49
2017-09-06T03:17:23.050Z,100792.58
2017-09-06T03:22:26.532Z,100795.55
2017-09-06T03:27:29.839Z,100785.22
2017-09-06T03:32:31.867Z,100776.58
2017-09-06T03:37:33.843Z,100771.38
2017-09-06T03:42:35.820Z,100769.04
2017-09-06T03:47:37.809Z,100765.44
2017-09-06T03:52:39.833Z,100761.38
2017-09-06T03:57:41.805Z,100755.08
2017-09-06T04:02:43.781Z,100747.41
2017-09-06T04:07:45.727Z,100743.53
2017-09-06T04:12:47.682Z,100735.09
2017-09-06T04:17:49.607Z,100737.64
2017-09-06T04:22:51.593Z,100733.13
2017-09-06T04:27:53.624Z,100732.20
2017-09-06T04:32:55.596Z,100740.22
2017-09-06T04:37:57.531Z,100729.27
2017-09-06T04:42:59.505Z,100724.07
2017-09-06T04:48:01.464Z,100724.66
2017-09-06T04:53:03.442Z,100723.69
2017-09-06T04:58:05.444Z,100715.83
2017-09-06T05:03:07.503Z,100709.77
2017-09-06T05:08:09.436Z,100719.20
2017-09-06T05:13:11.386Z,100711.14
2017-09-06T05:18:13.358Z,100706.64
2017-09-06T05:23:15.299Z,100704.30
2017-09-06T05:28:19.850Z,100712.00
2017-09-06T05:33:27.596Z,100706.26
2017-09-06T05:38:34.373Z,100694.16
2017-09-06T05:43:36.788Z,100700.34
2017-09-06T05:48:38.760Z,100700.27
2017-09-06T05:53:40.732Z,100698.77
2017-09-06T05:58:42.665Z,100699.70
2017-09-06T06:03:44.642Z,100682.96
2017-09-06T06:08:46.576Z,100684.29
2017-09-06T06:13:48.635Z,100676.00
2017-09-06T06:18:50.568Z,100669.23
2017-09-06T06:23:52.545Z,100679.23
2017-09-06T06:28:54.523Z,100662.72
2017-09-06T06:33:56.510Z,100670.98
2017-09-06T06:38:58.471Z,100660.16
2017-09-06T06:44:00.411Z,100663.38
2017-09-06T06:49:02.868Z,100654.76
2017-09-06T06:54:04.904Z,100654.28
2017-09-06T06:59:06.899Z,100661.15
2017-09-06T07:04:08.879Z,100648.55
2017-09-06T07:09:10.853Z,100639.73
2017-09-06T07:14:12.809Z,100642.63
2017-09-06T07:19:14.815Z,100644.63
2017-09-06T07:24:16.784Z,100647.44
2017-09-06T07:29:19.676Z,100636.92
2017-09-06T07:34:21.626Z,100619.93
2017-09-06T07:39:23.908Z,100621.47
2017-09-06T07:44:26.182Z,100620.32
2017-09-06T07:49:28.273Z,100623.78
2017-09-06T07:54:30.479Z,100625.69
2017-09-06T07:59:32.451Z,100619.78
2017-09-06T08:04:34.395Z,100623.37
2017-09-06T08:09:36.621Z,100619.01
2017-09-06T08:14:38.823Z,100615.25
2017-09-06T08:19:41.441Z,100615.89
2017-09-06T08:24:43.385Z,100590.87
2017-09-06T08:29:45.403Z,100603.22
2017-09-06T08:34:47.372Z,100604.55
2017-09-06T08:39:49.318Z,100593.78
2017-09-06T08:44:51.327Z,100585.59
2017-09-06T08:49:53.333Z,100587.09
2017-09-06T08:54:55.297Z,100585.36
2017-09-06T08:59:57.263Z,100594.50
2017-09-06T09:04:59.250Z,100592.06
2017-09-06T09:10:01.201Z,100589.22
2017-09-06T09:15:03.362Z,100590.66
2017-09-06T09:20:05.377Z,100593.08
2017-09-06T09:25:08.492Z,100582.28
2017-09-06T09:30:10.528Z,100571.36
2017-09-06T09:35:12.552Z,100592.56
2017-09-06T09:40:14.553Z,100598.19
2017-09-06T09:45:16.558Z,100584.62
2017-09-06T09:50:18.544Z,100584.69
2017-09-06T09:55:20.504Z,100582.78
2017-09-06T10:00:22.479Z,100572.73
2017-09-06T10:05:24.437Z,100575.19
2017-09-06T10:10:26.378Z,100589.02
2017-09-06T10:15:28.427Z,100583.52
2017-09-06T10:20:30.615Z,100595.24
2017-09-06T10:25:32.671Z,100601.39
2017-09-06T10:30:34.684Z,100594.61
2017-09-06T10:35:36.655Z,100601.86
2017-09-06T10:40:38.698Z,100614.40
2017-09-06T10:45:40.652Z,100605.30
2017-09-06T10:50:42.704Z,100604.16
2017-09-06T10:55:46.416Z,100612.73
2017-09-06T11:00:48.357Z,100617.20
2017-09-06T11:05:50.375Z,100622.72
2017-09-06T11:10:52.328Z,100642.75
2017-09-06T11:15:54.377Z,100606.51
2017-09-06T11:20:56.325Z,100638.28
2017-09-06T11:25:58.273Z,100645.74
2017-09-06T11:31:00.310Z,100666.36
2017-09-06T11:36:02.421Z,100682.54
2017-09-06T11:41:04.410Z,100696.14
2017-09-06T11:46:06.382Z,100706.89
2017-09-06T11:51:08.383Z,100716.56
2017-09-06T11:56:10.331Z,100739.34
2017-09-06T12:01:12.279Z,100758.84
2017-09-06T12:06:14.398Z,100752.78
2017-09-06T12:11:17.987Z,100756.52
2017-09-06T12:16:25.475Z,100784.47
2017-09-06T12:21:28.744Z,100765.23
2017-09-06T12:26:35.284Z,100778.06
2017-09-06T12:31:40.543Z,100790.36
2017-09-06T12:36:42.890Z,100795.05
2017-09-06T12:41:44.901Z,100779.65
2017-09-06T12:46:46.939Z,100776.64
2017-09-06T12:51:48.905Z,100778.73
2017-09-06T12:56:50.853Z,100777.39
2017-09-06T13:01:52.832Z,100773.17
2017-09-06T13:06:54.772Z,100772.28
2017-09-06T13:11:56.721Z,100786.09
2017-09-06T13:16:58.662Z,100774.79
2017-09-06T13:22:00.611Z,100779.39
2017-09-06T13:27:02.576Z,100778.63
2017-09-06T13:32:05.234Z,100767.31
2017-09-06T13:37:07.695Z,100782.70
2017-09-06T13:42:10.458Z,100786.56
2017-09-06T13:47:12.468Z,100792.57
2017-09-06T13:52:14.436Z,100794.08
2017-09-06T13:57:16.852Z,100798.20
2017-09-06T14:02:18.801Z,100802.93
2017-09-06T14:07:20.844Z,100802.53
2017-09-06T14:12:22.788Z,100801.95
2017-09-06T14:17:25.674Z,100805.00
2017-09-06T14:22:27.603Z,100807.41
2017-09-06T14:27:29.544Z,100814.24
2017-09-06T14:32:31.532Z,100815.16
2017-09-06T14:37:33.470Z,100804.91
2017-09-06T14:42:35.516Z,100816.77
2017-09-06T14:47:37.557Z,100825.22
2017-09-06T14:52:39.508Z,100818.91
2017-09-06T14:57:41.469Z,100835.91
2017-09-06T15:02:45.790Z,100841.12
2017-09-06T15:07:47.758Z,100847.66
2017-09-06T15:12:49.712Z,100884.59
2017-09-06T15:17:51.680Z,100878.89
2017-09-06T15:22:53.641Z,100890.91
2017-09-06T15:27:55.631Z,100890.16
2017-09-06T15:33:04.662Z,100903.54
2017-09-06T15:38:06.604Z,100906.29
2017-09-06T15:43:08.529Z,100904.53
2017-09-06T15:48:10.460Z,100911.16
2017-09-06T15:53:12.392Z,100914.73
2017-09-06T15:58:14.359Z,100906.20
2017-09-06T16:03:16.475Z,100908.20
2017-09-06T16:08:18.471Z,100903.94
2017-09-06T16:13:20.408Z,100903.78
2017-09-06T16:18:22.361Z,100900.75
2017-09-06T16:23:25.434Z,100896.11
2017-09-06T16:28:27.497Z,100893.27
2017-09-06T16:33:30.452Z,100897.84
2017-09-06T16:38:33.215Z,100902.19
2017-09-06T16:43:35.715Z,100906.58
2017-09-06T16:48:38.444Z,100901.27
2017-09-06T16:53:41.662Z,100909.00
2017-09-06T16:58:54.823Z,100917.28
2017-09-06T17:03:57.542Z,100917.68
2017-09-06T17:09:00.186Z,100921.59
2017-09-06T17:14:02.266Z,100922.55
2017-09-06T17:19:04.203Z,100935.37
2017-09-06T17:24:06.271Z,100941.25
2017-09-06T17:29:09.069Z,100943.79
2017-09-06T17:34:11.151Z,100942.95
2017-09-06T17:39:13.095Z,100947.59
2017-09-06T17:44:15.307Z,100947.33
2017-09-06T17:49:17.601Z,100948.89
2017-09-06T17:54:22.645Z,100948.77
2017-09-06T17:59:25.181Z,100959.41
2017-09-06T18:04:27.587Z,100963.24
2017-09-06T18:09:29.906Z,100966.41
2017-09-06T18:14:32.273Z,100971.11
2017-09-06T18:19:36.471Z,100980.42
2017-09-06T18:24:39.442Z,100982.91
2017-09-06T18:29:41.866Z,100983.30
2017-09-06T18:34:44.279Z,100989.08
2017-09-06T18:39:46.360Z,100992.60
2017-09-06T18:44:48.594Z,100997.84
2017-09-06T18:49:50.947Z,101001.72
2017-09-06T18:54:53.376Z,101001.44
2017-09-06T18:59:55.846Z,101003.98
2017-09-06T19:04:58.033Z,101011.31
2017-09-06T19:10:00.296Z,101003.36
2017-09-06T19:15:02.562Z,101013.33
2017-09-06T19:20:04.638Z,101012.98
2017-09-06T19:25:06.684Z,101018.81
2017-09-06T19:30:09.052Z,101019.70
2017-09-06T19:35:11.324Z,101025.12
2017-09-06T19:40:13.693Z,101016.90
2017-09-06T19:45:16.140Z,101027.66
2017-09-06T19:50:18.460Z,101029.95
2017-09-06T19:55:20.935Z,101028.19
2017-09-06T20:00:23.100Z,101029.73
2017-09-06T20:05:25.490Z,101022.92
2017-09-06T20:10:30.154Z,101023.05
2017-09-06T20:15:33.967Z,101018.66
2017-09-06T20:20:37.064Z,101009.71
2017-09-06T20:25:40.099Z,101004.17
2017-09-06T20:30:44.615Z,101010.26
2017-09-06T20:35:48.029Z,101007.21
2017-09-06T20:40:50.220Z,101008.25
2017-09-06T20:45:52.199Z,101003.55
2017-09-06T20:50:54.265Z,101006.84
2017-09-06T20:55:56.893Z,101006.64
2017-09-06T21:00:58.966Z,100999.51
2017-09-06T21:06:00.960Z,101001.45
2017-09-06T21:11:03.212Z,100999.33
2017-09-06T21:16:05.189Z,101003.16
2017-09-06T21:21:07.205Z,100999.81
2017-09-06T21:26:09.192Z,101005.42
2017-09-06T21:31:11.196Z,101015.03
2017-09-06T21:36:13.278Z,101010.59
2017-09-06T21:41:15.314Z,101019.45
2017-09-06T21:46:17.266Z,101009.98
2017-09-06T21:51:19.265Z,101026.33
2017-09-06T21:56:21.348Z,101024.28
2017-09-06T22:01:23.328Z,101031.59
2017-09-06T22:06:25.300Z,101030.34
2017-09-06T22:11:27.256Z,101023.99
2017-09-06T22:16:29.211Z,101006.52
2017-09-06T22:21:31.206Z,101021.38
2017-09-06T22:26:33.198Z,101016.69
2017-09-06T22:31:35.193Z,101016.97
2017-09-06T22:36:37.275Z,101015.34
2017-09-06T22:41:39.259Z,101019.30
2017-09-06T22:46:41.249Z,101015.34
2017-09-06T22:51:43.688Z,101009.33
2017-09-06T22:56:47.564Z,101002.63
2017-09-06T23:01:49.532Z,101000.94
2017-09-06T23:06:51.455Z,100998.09
2017-09-06T23:11:53.430Z,100997.06
2017-09-06T23:16:55.382Z,100998.91
2017-09-06T23:21:57.315Z,101001.00
2017-09-06T23:26:59.290Z,101000.11
2017-09-06T23:32:01.296Z,100998.21
2017-09-06T23:37:03.240Z,100993.97
2017-09-06T23:42:05.287Z,100987.73
2017-09-06T23:47:07.342Z,100978.91
2017-09-06T23:52:09.332Z,100972.67
2017-09-06T23:57:11.600Z,100973.65
